sensor_id;sensor_type;location;lat;lon;timestamp;temperature;humidity
9668;DHT22;4872;48.316;10.650;2024-03-06T05:07:17;5.10;99.90
9668;DHT22;4872;48.316;10.650;2024-03-06T05:09:44;5.00;99.90
9668;DHT22;4872;48.316;10.650;2024-03-06T05:12:11;5.10;99.90
9668;DHT22;4872;48.316;10.650;2024-03-06T05:14:38;5.10;99.90
9668;DHT22;4872;48.316;10.650;2024-03-06T05:17:05;5.20;99.90
9668;DHT22;4872;48.316;10.650;2024-03-06T05:19:31;5.10;99.90
9668;DHT22;4872;48.316;10.650;2024-03-06T05:21:58;5.10;99.90
9668;DHT22;4872;48.316;10.650;2024-03-06T05:24:26;5.20;99.90
9668;DHT22;4872;48.316;10.650;2024-03-06T05:26:53;5.10;99.90
9668;DHT22;4872;48.316;10.650;2024-03-06T05:29:20;5.10;99.90
9668;DHT22;4872;48.316;10.650;2024-03-06T05:31:47;5.30;99.90
9668;DHT22;4872;48.316;10.650;2024-03-06T05:34:13;5.10;99.90
9668;DHT22;4872;48.316;10.650;2024-03-06T05:36:40;5.10;99.90
9668;DHT22;4872;48.316;10.650;2024-03-06T05:39:07;5.10;99.90
9668;DHT22;4872;48.316;10.650;2024-03-06T05:41:39;5.10;99.90
9668;DHT22;4872;48.316;10.650;2024-03-06T05:44:06;5.20;99.90
9668;DHT22;4872;48.316;10.650;2024-03-06T05:46:33;5.20;99.90
9668;DHT22;4872;48.316;10.650;2024-03-06T05:49:00;5.10;99.90
9668;DHT22;4872;48.316;10.650;2024-03-06T05:51:27;5.10;99.90
9668;DHT22;4872;48.316;10.650;2024-03-06T05:53:54;5.30;99.90
9668;DHT22;4872;48.316;10.650;2024-03-06T05:56:21;5.10;99.90
9668;DHT22;4872;48.316;10.650;2024-03-06T05:58:49;5.10;99.90
9668;DHT22;4872;48.316;10.650;2024-03-06T06:01:16;5.10;99.90
9668;DHT22;4872;48.316;10.650;2024-03-06T06:03:45;5.30;99.90
9668;DHT22;4872;48.316;10.650;2024-03-06T06:06:14;5.20;99.90
9668;DHT22;4872;48.316;10.650;2024-03-06T06:08:41;5.20;99.90
9668;DHT22;4872;48.316;10.650;2024-03-06T06:11:09;5.20;99.90
9668;DHT22;4872;48.316;10.650;2024-03-06T06:13:36;5.20;99.90
9668;DHT22;4872;48.316;10.650;2024-03-06T06:16:05;5.20;99.90
9668;DHT22;4872;48.316;10.650;2024-03-06T06:18:32;5.20;99.90
9668;DHT22;4872;48.316;10.650;2024-03-06T06:20:59;5.20;99.90
9668;DHT22;4872;48.316;10.650;2024-03-06T06:23:26;5.20;99.90
9668;DHT22;4872;48.316;10.650;2024-03-06T06:25:53;5.30;99.90
9668;DHT22;4872;48.316;10.650;2024-03-06T06:28:20;5.30;99.90
9668;DHT22;4872;48.316;10.650;2024-03-06T06:30:48;5.30;99.90
9668;DHT22;4872;48.316;10.650;2024-03-06T06:33:19;5.30;99.90
9668;DHT22;4872;48.316;10.650;2024-03-06T06:35:46;5.40;99.90
9668;DHT22;4872;48.316;10.650;2024-03-06T06:38:13;5.40;99.90
9668;DHT22;4872;48.316;10.650;2024-03-06T06:40:39;5.40;99.90
9668;DHT22;4872;48.316;10.650;2024-03-06T06:43:07;5.50;99.90
9668;DHT22;4872;48.316;10.650;2024-03-06T06:45:34;5.70;99.90
9668;DHT22;4872;48.316;10.650;2024-03-06T06:48:00;5.40;99.90
9668;DHT22;4872;48.316;10.650;2024-03-06T06:50:29;5.40;99.90
9668;DHT22;4872;48.316;10.650;2024-03-06T06:52:58;5.40;99.90
9668;DHT22;4872;48.316;10.650;2024-03-06T06:55:26;5.40;99.90
9668;DHT22;4872;48.316;10.650;2024-03-06T06:57:52;5.30;99.90
9668;DHT22;4872;48.316;10.650;2024-03-06T07:00:19;5.30;99.90
9668;DHT22;4872;48.316;10.650;2024-03-06T07:02:48;5.30;99.90
9668;DHT22;4872;48.316;10.650;2024-03-06T07:05:15;5.40;99.90
9668;DHT22;4872;48.316;10.650;2024-03-06T07:07:43;5.50;99.90
9668;DHT22;4872;48.316;10.650;2024-03-06T07:10:10;5.60;99.90
9668;DHT22;4872;48.316;10.650;2024-03-06T07:12:37;5.50;99.90
9668;DHT22;4872;48.316;10.650;2024-03-06T07:15:04;5.50;99.90
9668;DHT22;4872;48.316;10.650;2024-03-06T07:17:32;5.50;99.90
9668;DHT22;4872;48.316;10.650;2024-03-06T07:19:59;5.40;99.90
9668;DHT22;4872;48.316;10.650;2024-03-06T07:22:26;5.60;99.90
9668;DHT22;4872;48.316;10.650;2024-03-06T07:24:54;5.30;99.90
9668;DHT22;4872;48.316;10.650;2024-03-06T07:27:20;5.40;99.90
9668;DHT22;4872;48.316;10.650;2024-03-06T07:29:47;5.60;99.90
9668;DHT22;4872;48.316;10.650;2024-03-06T07:32:14;5.40;99.90
9668;DHT22;4872;48.316;10.650;2024-03-06T07:34:41;5.40;99.90
9668;DHT22;4872;48.316;10.650;2024-03-06T07:37:08;5.40;99.90
9668;DHT22;4872;48.316;10.650;2024-03-06T07:39:34;5.40;99.90
9668;DHT22;4872;48.316;10.650;2024-03-06T07:42:03;5.50;99.90
9668;DHT22;4872;48.316;10.650;2024-03-06T07:44:29;5.40;99.90
9668;DHT22;4872;48.316;10.650;2024-03-06T07:46:56;5.40;99.90
9668;DHT22;4872;48.316;10.650;2024-03-06T07:49:23;5.40;99.90
9668;DHT22;4872;48.316;10.650;2024-03-06T07:51:50;5.40;99.90
9668;DHT22;4872;48.316;10.650;2024-03-06T07:54:17;5.40;99.90
9668;DHT22;4872;48.316;10.650;2024-03-06T07:56:44;5.50;99.90
9668;DHT22;4872;48.316;10.650;2024-03-06T07:59:12;5.60;99.90
9668;DHT22;4872;48.316;10.650;2024-03-06T08:01:40;5.60;99.90
9668;DHT22;4872;48.316;10.650;2024-03-06T08:04:07;5.60;99.90
9668;DHT22;4872;48.316;10.650;2024-03-06T08:06:34;5.60;99.90
9668;DHT22;4872;48.316;10.650;2024-03-06T08:09:02;5.60;99.90
9668;DHT22;4872;48.316;10.650;2024-03-06T08:11:29;5.70;99.90
9668;DHT22;4872;48.316;10.650;2024-03-06T08:13:57;5.80;99.90
9668;DHT22;4872;48.316;10.650;2024-03-06T08:16:25;5.80;99.90
9668;DHT22;4872;48.316;10.650;2024-03-06T08:18:52;5.80;99.90
9668;DHT22;4872;48.316;10.650;2024-03-06T08:21:18;5.90;99.90
9668;DHT22;4872;48.316;10.650;2024-03-06T08:23:46;5.90;99.90
9668;DHT22;4872;48.316;10.650;2024-03-06T08:26:13;6.00;99.90
9668;DHT22;4872;48.316;10.650;2024-03-06T08:28:40;6.10;99.90
9668;DHT22;4872;48.316;10.650;2024-03-06T08:31:06;6.10;99.90
9668;DHT22;4872;48.316;10.650;2024-03-06T08:33:35;6.20;99.90
9668;DHT22;4872;48.316;10.650;2024-03-06T08:36:02;6.20;99.90
9668;DHT22;4872;48.316;10.650;2024-03-06T08:38:28;6.30;99.90
9668;DHT22;4872;48.316;10.650;2024-03-06T08:40:55;6.30;99.90
9668;DHT22;4872;48.316;10.650;2024-03-06T08:43:22;6.30;99.90
9668;DHT22;4872;48.316;10.650;2024-03-06T08:45:48;6.30;99.90
9668;DHT22;4872;48.316;10.650;2024-03-06T08:48:15;6.30;99.90
9668;DHT22;4872;48.316;10.650;2024-03-06T08:50:43;6.40;99.90
9668;DHT22;4872;48.316;10.650;2024-03-06T08:53:11;6.50;99.90
9668;DHT22;4872;48.316;10.650;2024-03-06T08:55:39;6.50;99.90
9668;DHT22;4872;48.316;10.650;2024-03-06T08:58:05;6.70;99.90
9668;DHT22;4872;48.316;10.650;2024-03-06T09:00:31;6.60;99.90
9668;DHT22;4872;48.316;10.650;2024-03-06T09:02:58;6.60;99.90
9668;DHT22;4872;48.316;10.650;2024-03-06T09:05:25;6.60;99.90
9668;DHT22;4872;48.316;10.650;2024-03-06T09:07:53;6.70;99.90
9668;DHT22;4872;48.316;10.650;2024-03-06T09:10:22;6.70;99.90
9668;DHT22;4872;48.316;10.650;2024-03-06T09:12:49;6.80;99.90
9668;DHT22;4872;48.316;10.650;2024-03-06T09:15:16;6.80;99.90
9668;DHT22;4872;48.316;10.650;2024-03-06T09:17:43;6.70;99.90
9668;DHT22;4872;48.316;10.650;2024-03-06T09:20:11;6.80;99.90
9668;DHT22;4872;48.316;10.650;2024-03-06T09:22:38;6.90;99.90
9668;DHT22;4872;48.316;10.650;2024-03-06T09:25:07;7.00;99.90
9668;DHT22;4872;48.316;10.650;2024-03-06T09:27:34;6.90;99.90
9668;DHT22;4872;48.316;10.650;2024-03-06T09:30:00;6.90;99.90
9668;DHT22;4872;48.316;10.650;2024-03-06T09:32:28;7.00;99.90
9668;DHT22;4872;48.316;10.650;2024-03-06T09:34:55;7.00;99.90
9668;DHT22;4872;48.316;10.650;2024-03-06T09:37:22;7.10;99.90
9668;DHT22;4872;48.316;10.650;2024-03-06T09:39:49;7.10;99.90
9668;DHT22;4872;48.316;10.650;2024-03-06T09:42:17;7.10;99.90
9668;DHT22;4872;48.316;10.650;2024-03-06T09:44:44;7.20;99.90
9668;DHT22;4872;48.316;10.650;2024-03-06T09:47:13;7.20;99.90
9668;DHT22;4872;48.316;10.650;2024-03-06T09:49:41;7.20;99.90
9668;DHT22;4872;48.316;10.650;2024-03-06T09:52:08;7.20;99.90
9668;DHT22;4872;48.316;10.650;2024-03-06T09:54:35;7.20;99.90
9668;DHT22;4872;48.316;10.650;2024-03-06T09:57:04;7.20;99.90
9668;DHT22;4872;48.316;10.650;2024-03-06T09:59:32;7.10;99.90
9668;DHT22;4872;48.316;10.650;2024-03-06T10:02:00;7.10;99.90
9668;DHT22;4872;48.316;10.650;2024-03-06T10:04:32;7.20;99.90
9668;DHT22;4872;48.316;10.650;2024-03-06T10:07:00;7.40;99.90
9668;DHT22;4872;48.316;10.650;2024-03-06T10:09:28;7.50;99.90
9668;DHT22;4872;48.316;10.650;2024-03-06T10:11:57;7.50;99.90
9668;DHT22;4872;48.316;10.650;2024-03-06T10:14:23;7.50;99.90
9668;DHT22;4872;48.316;10.650;2024-03-06T10:16:56;7.60;99.90
9668;DHT22;4872;48.316;10.650;2024-03-06T10:19:24;7.90;99.90
9668;DHT22;4872;48.316;10.650;2024-03-06T10:21:53;7.70;99.90
9668;DHT22;4872;48.316;10.650;2024-03-06T10:24:20;7.80;99.90
9668;DHT22;4872;48.316;10.650;2024-03-06T10:26:48;7.90;99.90
9668;DHT22;4872;48.316;10.650;2024-03-06T10:29:16;8.00;99.90
9668;DHT22;4872;48.316;10.650;2024-03-06T10:31:51;8.00;99.90
9668;DHT22;4872;48.316;10.650;2024-03-06T10:34:22;8.00;99.90
9668;DHT22;4872;48.316;10.650;2024-03-06T10:36:53;8.00;99.90
9668;DHT22;4872;48.316;10.650;2024-03-06T10:39:20;7.90;99.90
9668;DHT22;4872;48.316;10.650;2024-03-06T10:41:51;8.00;99.90
9668;DHT22;4872;48.316;10.650;2024-03-06T10:44:21;8.10;99.90
9668;DHT22;4872;48.316;10.650;2024-03-06T10:46:51;8.10;99.90
9668;DHT22;4872;48.316;10.650;2024-03-06T10:49:24;8.20;99.90
9668;DHT22;4872;48.316;10.650;2024-03-06T10:51:54;8.30;99.90
9668;DHT22;4872;48.316;10.650;2024-03-06T10:54:26;8.30;99.90
9668;DHT22;4872;48.316;10.650;2024-03-06T10:56:55;8.30;99.90
9668;DHT22;4872;48.316;10.650;2024-03-06T10:59:24;8.20;99.90
9668;DHT22;4872;48.316;10.650;2024-03-06T11:01:54;8.10;99.90
9668;DHT22;4872;48.316;10.650;2024-03-06T11:04:23;8.30;99.90
9668;DHT22;4872;48.316;10.650;2024-03-06T11:06:51;8.20;99.90
9668;DHT22;4872;48.316;10.650;2024-03-06T11:09:18;8.30;99.90
9668;DHT22;4872;48.316;10.650;2024-03-06T11:11:49;8.30;99.90
9668;DHT22;4872;48.316;10.650;2024-03-06T11:14:16;8.40;99.90
9668;DHT22;4872;48.316;10.650;2024-03-06T11:16:57;8.50;99.90
9668;DHT22;4872;48.316;10.650;2024-03-06T11:19:26;8.60;99.90
9668;DHT22;4872;48.316;10.650;2024-03-06T11:21:53;8.80;99.90
9668;DHT22;4872;48.316;10.650;2024-03-06T11:25:04;8.90;99.90
9668;DHT22;4872;48.316;10.650;2024-03-06T11:28:03;9.10;99.90
9668;DHT22;4872;48.316;10.650;2024-03-06T11:30:31;9.10;99.90
9668;DHT22;4872;48.316;10.650;2024-03-06T11:32:57;9.20;99.90
9668;DHT22;4872;48.316;10.650;2024-03-06T11:35:28;9.10;99.90
9668;DHT22;4872;48.316;10.650;2024-03-06T11:37:55;9.20;99.90
9668;DHT22;4872;48.316;10.650;2024-03-06T11:40:22;9.10;99.90
9668;DHT22;4872;48.316;10.650;2024-03-06T11:42:50;9.20;99.90
9668;DHT22;4872;48.316;10.650;2024-03-06T11:45:18;9.10;99.90
9668;DHT22;4872;48.316;10.650;2024-03-06T11:47:57;9.40;99.90
9668;DHT22;4872;48.316;10.650;2024-03-06T11:50:26;9.10;99.90
9668;DHT22;4872;48.316;10.650;2024-03-06T11:52:57;9.10;99.90
9668;DHT22;4872;48.316;10.650;2024-03-06T11:55:24;9.10;99.90
9668;DHT22;4872;48.316;10.650;2024-03-06T11:57:51;9.10;99.90
9668;DHT22;4872;48.316;10.650;2024-03-06T12:00:21;9.20;99.90
9668;DHT22;4872;48.316;10.650;2024-03-06T12:02:48;9.20;99.90
9668;DHT22;4872;48.316;10.650;2024-03-06T12:05:16;9.20;99.90
9668;DHT22;4872;48.316;10.650;2024-03-06T12:07:46;9.30;99.90
9668;DHT22;4872;48.316;10.650;2024-03-06T12:10:16;9.20;99.90
9668;DHT22;4872;48.316;10.650;2024-03-06T12:12:43;9.30;99.90
9668;DHT22;4872;48.316;10.650;2024-03-06T12:15:11;9.40;99.90
9668;DHT22;4872;48.316;10.650;2024-03-06T12:17:42;9.50;99.90
9668;DHT22;4872;48.316;10.650;2024-03-06T12:23:09;9.30;99.90
9668;DHT22;4872;48.316;10.650;2024-03-06T12:25:37;9.50;99.90
9668;DHT22;4872;48.316;10.650;2024-03-06T12:28:07;9.50;99.90
9668;DHT22;4872;48.316;10.650;2024-03-06T12:30:40;9.60;99.90
9668;DHT22;4872;48.316;10.650;2024-03-06T12:33:08;9.70;99.90
9668;DHT22;4872;48.316;10.650;2024-03-06T12:35:36;9.60;99.90
9668;DHT22;4872;48.316;10.650;2024-03-06T12:38:11;9.50;99.90
9668;DHT22;4872;48.316;10.650;2024-03-06T12:40:40;9.50;99.90
9668;DHT22;4872;48.316;10.650;2024-03-06T12:43:07;9.50;99.90
9668;DHT22;4872;48.316;10.650;2024-03-06T12:45:35;9.40;99.90
9668;DHT22;4872;48.316;10.650;2024-03-06T12:48:03;9.40;99.90
9668;DHT22;4872;48.316;10.650;2024-03-06T12:50:31;9.40;99.90
9668;DHT22;4872;48.316;10.650;2024-03-06T12:52:58;9.40;99.90
9668;DHT22;4872;48.316;10.650;2024-03-06T12:55:25;9.40;99.90
9668;DHT22;4872;48.316;10.650;2024-03-06T12:57:53;9.20;99.90
9668;DHT22;4872;48.316;10.650;2024-03-06T13:00:20;9.20;99.90
9668;DHT22;4872;48.316;10.650;2024-03-06T13:02:47;9.10;99.90
9668;DHT22;4872;48.316;10.650;2024-03-06T13:05:14;9.30;99.90
9668;DHT22;4872;48.316;10.650;2024-03-06T13:07:42;9.30;99.90
9668;DHT22;4872;48.316;10.650;2024-03-06T13:10:10;9.40;99.90
9668;DHT22;4872;48.316;10.650;2024-03-06T13:12:37;9.40;99.90
9668;DHT22;4872;48.316;10.650;2024-03-06T13:15:06;9.40;99.90
9668;DHT22;4872;48.316;10.650;2024-03-06T13:17:33;9.30;99.90
9668;DHT22;4872;48.316;10.650;2024-03-06T13:20:00;9.30;99.90
9668;DHT22;4872;48.316;10.650;2024-03-06T13:22:27;9.20;99.90
9668;DHT22;4872;48.316;10.650;2024-03-06T13:24:54;9.10;99.90
9668;DHT22;4872;48.316;10.650;2024-03-06T13:27:22;9.00;99.90
9668;DHT22;4872;48.316;10.650;2024-03-06T13:29:49;8.90;99.90
9668;DHT22;4872;48.316;10.650;2024-03-06T13:32:18;9.10;99.90
9668;DHT22;4872;48.316;10.650;2024-03-06T13:34:45;9.00;99.90
9668;DHT22;4872;48.316;10.650;2024-03-06T13:37:12;9.10;99.90
9668;DHT22;4872;48.316;10.650;2024-03-06T13:39:39;9.10;99.90
9668;DHT22;4872;48.316;10.650;2024-03-06T13:42:06;8.90;99.90
9668;DHT22;4872;48.316;10.650;2024-03-06T13:44:33;8.90;99.90
9668;DHT22;4872;48.316;10.650;2024-03-06T13:47:00;8.90;99.90
9668;DHT22;4872;48.316;10.650;2024-03-06T13:49:39;8.80;99.90
9668;DHT22;4872;48.316;10.650;2024-03-06T13:52:17;8.80;99.90
9668;DHT22;4872;48.316;10.650;2024-03-06T13:54:46;8.90;99.90
9668;DHT22;4872;48.316;10.650;2024-03-06T13:57:13;8.90;99.90
9668;DHT22;4872;48.316;10.650;2024-03-06T13:59:40;8.90;99.90
9668;DHT22;4872;48.316;10.650;2024-03-06T14:02:08;8.80;99.90
9668;DHT22;4872;48.316;10.650;2024-03-06T14:04:35;8.50;99.90
9668;DHT22;4872;48.316;10.650;2024-03-06T14:07:03;8.40;99.90
9668;DHT22;4872;48.316;10.650;2024-03-06T14:09:31;8.40;99.90
9668;DHT22;4872;48.316;10.650;2024-03-06T14:11:57;8.10;99.90
9668;DHT22;4872;48.316;10.650;2024-03-06T14:14:24;7.80;99.90
9668;DHT22;4872;48.316;10.650;2024-03-06T14:16:51;7.70;99.90
9668;DHT22;4872;48.316;10.650;2024-03-06T14:19:18;7.60;99.90
9668;DHT22;4872;48.316;10.650;2024-03-06T14:21:44;7.40;99.90
9668;DHT22;4872;48.316;10.650;2024-03-06T14:24:14;7.30;99.90
9668;DHT22;4872;48.316;10.650;2024-03-06T14:26:41;7.10;99.90
9668;DHT22;4872;48.316;10.650;2024-03-06T14:29:07;6.90;99.90
9668;DHT22;4872;48.316;10.650;2024-03-06T14:31:35;6.90;99.90
9668;DHT22;4872;48.316;10.650;2024-03-06T14:34:02;6.80;99.90
9668;DHT22;4872;48.316;10.650;2024-03-06T14:36:28;7.10;99.90
9668;DHT22;4872;48.316;10.650;2024-03-06T14:38:55;6.90;99.90
9668;DHT22;4872;48.316;10.650;2024-03-06T14:41:23;6.80;99.90
9668;DHT22;4872;48.316;10.650;2024-03-06T14:43:50;6.70;99.90
9668;DHT22;4872;48.316;10.650;2024-03-06T14:46:17;6.70;99.90
9668;DHT22;4872;48.316;10.650;2024-03-06T14:48:44;6.70;99.90
9668;DHT22;4872;48.316;10.650;2024-03-06T14:51:11;6.60;99.90
9668;DHT22;4872;48.316;10.650;2024-03-06T14:53:39;6.60;99.90
9668;DHT22;4872;48.316;10.650;2024-03-06T14:56:06;6.60;99.90
9668;DHT22;4872;48.316;10.650;2024-03-06T14:58:34;6.50;99.90
9668;DHT22;4872;48.316;10.650;2024-03-06T15:01:01;6.50;99.90
9668;DHT22;4872;48.316;10.650;2024-03-06T15:03:28;6.40;99.90
9668;DHT22;4872;48.316;10.650;2024-03-06T15:05:55;6.40;99.90
9668;DHT22;4872;48.316;10.650;2024-03-06T15:08:22;6.40;99.90
9668;DHT22;4872;48.316;10.650;2024-03-06T15:10:49;6.60;99.90
9668;DHT22;4872;48.316;10.650;2024-03-06T15:13:19;6.30;99.90
9668;DHT22;4872;48.316;10.650;2024-03-06T15:15:49;6.20;99.90
9668;DHT22;4872;48.316;10.650;2024-03-06T15:18:17;6.20;99.90
9668;DHT22;4872;48.316;10.650;2024-03-06T15:20:44;6.10;99.90
9668;DHT22;4872;48.316;10.650;2024-03-06T15:23:11;6.10;99.90
9668;DHT22;4872;48.316;10.650;2024-03-06T15:25:38;6.30;99.90
9668;DHT22;4872;48.316;10.650;2024-03-06T15:28:05;6.00;99.90
9668;DHT22;4872;48.316;10.650;2024-03-06T15:30:31;6.00;99.90
9668;DHT22;4872;48.316;10.650;2024-03-06T15:33:01;6.00;99.90
9668;DHT22;4872;48.316;10.650;2024-03-06T15:35:28;5.90;99.90
9668;DHT22;4872;48.316;10.650;2024-03-06T15:37:55;5.90;99.90
9668;DHT22;4872;48.316;10.650;2024-03-06T15:40:22;5.80;99.90
9668;DHT22;4872;48.316;10.650;2024-03-06T15:42:50;5.80;99.90
9668;DHT22;4872;48.316;10.650;2024-03-06T15:45:17;6.10;99.90
9668;DHT22;4872;48.316;10.650;2024-03-06T15:47:45;6.00;99.90
9668;DHT22;4872;48.316;10.650;2024-03-06T15:50:13;5.80;99.90
9668;DHT22;4872;48.316;10.650;2024-03-06T15:52:40;5.70;99.90
9668;DHT22;4872;48.316;10.650;2024-03-06T15:55:07;5.70;99.90
9668;DHT22;4872;48.316;10.650;2024-03-06T15:57:35;5.70;99.90
9668;DHT22;4872;48.316;10.650;2024-03-06T16:00:02;5.70;99.90
9668;DHT22;4872;48.316;10.650;2024-03-06T16:02:31;5.60;99.90
9668;DHT22;4872;48.316;10.650;2024-03-06T16:04:59;5.60;99.90
9668;DHT22;4872;48.316;10.650;2024-03-06T16:07:27;5.60;99.90
9668;DHT22;4872;48.316;10.650;2024-03-06T16:09:54;5.50;99.90
9668;DHT22;4872;48.316;10.650;2024-03-06T16:12:21;5.70;99.90
9668;DHT22;4872;48.316;10.650;2024-03-06T16:14:49;5.70;99.90
9668;DHT22;4872;48.316;10.650;2024-03-06T16:17:16;5.60;99.90
9668;DHT22;4872;48.316;10.650;2024-03-06T16:19:42;5.60;99.90
9668;DHT22;4872;48.316;10.650;2024-03-06T16:22:09;5.70;99.90
9668;DHT22;4872;48.316;10.650;2024-03-06T16:24:37;5.70;99.90
9668;DHT22;4872;48.316;10.650;2024-03-06T16:27:05;5.60;99.90
9668;DHT22;4872;48.316;10.650;2024-03-06T16:29:32;5.50;99.90
9668;DHT22;4872;48.316;10.650;2024-03-06T16:31:59;5.70;99.90
9668;DHT22;4872;48.316;10.650;2024-03-06T16:34:27;5.40;99.90
9668;DHT22;4872;48.316;10.650;2024-03-06T16:36:56;5.50;99.90
9668;DHT22;4872;48.316;10.650;2024-03-06T16:39:23;5.60;99.90
9668;DHT22;4872;48.316;10.650;2024-03-06T16:41:51;5.60;99.90
9668;DHT22;4872;48.316;10.650;2024-03-06T16:44:18;5.60;99.90
9668;DHT22;4872;48.316;10.650;2024-03-06T16:46:45;5.50;99.90
9668;DHT22;4872;48.316;10.650;2024-03-06T16:49:12;5.60;99.90
9668;DHT22;4872;48.316;10.650;2024-03-06T16:51:39;5.60;99.90
9668;DHT22;4872;48.316;10.650;2024-03-06T16:54:06;5.50;99.90
9668;DHT22;4872;48.316;10.650;2024-03-06T16:56:32;5.50;99.90
9668;DHT22;4872;48.316;10.650;2024-03-06T16:59:01;5.40;99.90
9668;DHT22;4872;48.316;10.650;2024-03-06T17:01:27;5.40;99.90
9668;DHT22;4872;48.316;10.650;2024-03-06T17:03:55;5.30;99.90
9668;DHT22;4872;48.316;10.650;2024-03-06T17:06:22;5.30;99.90
9668;DHT22;4872;48.316;10.650;2024-03-06T17:08:49;5.30;99.90
9668;DHT22;4872;48.316;10.650;2024-03-06T17:11:16;5.30;99.90
9668;DHT22;4872;48.316;10.650;2024-03-06T17:13:43;5.10;99.90
9668;DHT22;4872;48.316;10.650;2024-03-06T17:16:11;5.10;99.90
9668;DHT22;4872;48.316;10.650;2024-03-06T17:18:38;5.10;99.90
9668;DHT22;4872;48.316;10.650;2024-03-06T17:21:06;5.10;99.90
9668;DHT22;4872;48.316;10.650;2024-03-06T17:23:35;5.10;99.90
9668;DHT22;4872;48.316;10.650;2024-03-06T17:26:02;5.20;99.90
9668;DHT22;4872;48.316;10.650;2024-03-06T17:28:29;5.20;99.90
9668;DHT22;4872;48.316;10.650;2024-03-06T17:30:56;5.30;99.90
9668;DHT22;4872;48.316;10.650;2024-03-06T17:33:25;5.20;99.90
9668;DHT22;4872;48.316;10.650;2024-03-06T17:35:52;5.20;99.90
9668;DHT22;4872;48.316;10.650;2024-03-06T17:38:21;5.20;99.90
9668;DHT22;4872;48.316;10.650;2024-03-06T17:40:50;5.20;99.90
9668;DHT22;4872;48.316;10.650;2024-03-06T17:43:17;5.60;99.90
9668;DHT22;4872;48.316;10.650;2024-03-06T17:45:44;5.40;99.90
9668;DHT22;4872;48.316;10.650;2024-03-06T17:48:12;5.40;99.90
9668;DHT22;4872;48.316;10.650;2024-03-06T17:50:40;5.30;99.90
9668;DHT22;4872;48.316;10.650;2024-03-06T17:53:07;5.20;99.90
9668;DHT22;4872;48.316;10.650;2024-03-06T17:55:37;5.10;99.90
9668;DHT22;4872;48.316;10.650;2024-03-06T17:58:04;5.10;99.90
9668;DHT22;4872;48.316;10.650;2024-03-06T18:00:32;5.20;99.90
9668;DHT22;4872;48.316;10.650;2024-03-06T18:02:59;5.20;99.90
9668;DHT22;4872;48.316;10.650;2024-03-06T18:05:26;5.20;99.90
9668;DHT22;4872;48.316;10.650;2024-03-06T18:07:54;5.20;99.90
9668;DHT22;4872;48.316;10.650;2024-03-06T18:10:21;5.20;99.90
9668;DHT22;4872;48.316;10.650;2024-03-06T18:12:49;5.40;99.90
9668;DHT22;4872;48.316;10.650;2024-03-06T18:15:16;5.30;99.90
9668;DHT22;4872;48.316;10.650;2024-03-06T18:17:43;5.40;99.90
9668;DHT22;4872;48.316;10.650;2024-03-06T18:20:11;5.50;99.90
9668;DHT22;4872;48.316;10.650;2024-03-06T18:22:38;5.30;99.90
9668;DHT22;4872;48.316;10.650;2024-03-06T18:25:07;5.30;99.90
9668;DHT22;4872;48.316;10.650;2024-03-06T18:27:34;5.40;99.90
9668;DHT22;4872;48.316;10.650;2024-03-06T18:30:02;5.60;99.90
9668;DHT22;4872;48.316;10.650;2024-03-06T18:32:29;5.30;99.90
9668;DHT22;4872;48.316;10.650;2024-03-06T18:34:56;5.20;99.90
9668;DHT22;4872;48.316;10.650;2024-03-06T18:37:23;5.30;99.90
9668;DHT22;4872;48.316;10.650;2024-03-06T18:39:50;5.30;99.90
9668;DHT22;4872;48.316;10.650;2024-03-06T18:42:18;5.40;99.90
9668;DHT22;4872;48.316;10.650;2024-03-06T18:44:45;5.40;99.90
9668;DHT22;4872;48.316;10.650;2024-03-06T18:47:12;5.30;99.90
9668;DHT22;4872;48.316;10.650;2024-03-06T18:49:39;5.30;99.90
9668;DHT22;4872;48.316;10.650;2024-03-06T18:54:41;5.30;99.90
9668;DHT22;4872;48.316;10.650;2024-03-06T18:57:08;5.30;99.90
9668;DHT22;4872;48.316;10.650;2024-03-06T18:59:36;5.30;99.90
9668;DHT22;4872;48.316;10.650;2024-03-06T19:02:05;5.40;99.90
9668;DHT22;4872;48.316;10.650;2024-03-06T19:04:32;5.40;99.90
9668;DHT22;4872;48.316;10.650;2024-03-06T19:07:02;5.40;99.90
9668;DHT22;4872;48.316;10.650;2024-03-06T19:09:28;5.30;99.90
9668;DHT22;4872;48.316;10.650;2024-03-06T19:11:58;5.40;99.90
9668;DHT22;4872;48.316;10.650;2024-03-06T19:14:25;5.40;99.90
9668;DHT22;4872;48.316;10.650;2024-03-06T19:16:53;5.50;99.90
9668;DHT22;4872;48.316;10.650;2024-03-06T19:19:20;5.30;99.90
9668;DHT22;4872;48.316;10.650;2024-03-06T19:21:47;5.30;99.90
9668;DHT22;4872;48.316;10.650;2024-03-06T19:24:16;5.20;99.90
9668;DHT22;4872;48.316;10.650;2024-03-06T19:26:43;5.30;99.90
9668;DHT22;4872;48.316;10.650;2024-03-06T19:29:10;5.40;99.90
9668;DHT22;4872;48.316;10.650;2024-03-06T19:31:36;5.40;99.90
9668;DHT22;4872;48.316;10.650;2024-03-06T19:34:04;5.30;99.90
9668;DHT22;4872;48.316;10.650;2024-03-06T19:36:32;5.30;99.90
9668;DHT22;4872;48.316;10.650;2024-03-06T19:38:59;5.30;99.90
9668;DHT22;4872;48.316;10.650;2024-03-06T19:41:25;5.30;99.90
9668;DHT22;4872;48.316;10.650;2024-03-06T19:43:52;5.30;99.90
9668;DHT22;4872;48.316;10.650;2024-03-06T19:46:19;5.40;99.90
9668;DHT22;4872;48.316;10.650;2024-03-06T19:48:46;5.50;99.90
9668;DHT22;4872;48.316;10.650;2024-03-06T19:51:14;5.60;99.90
9668;DHT22;4872;48.316;10.650;2024-03-06T19:53:41;5.60;99.90
9668;DHT22;4872;48.316;10.650;2024-03-06T19:56:08;5.50;99.90
9668;DHT22;4872;48.316;10.650;2024-03-06T19:58:35;5.80;99.90
9668;DHT22;4872;48.316;10.650;2024-03-06T20:01:11;5.30;99.90
9668;DHT22;4872;48.316;10.650;2024-03-06T20:03:41;5.70;99.90
9668;DHT22;4872;48.316;10.650;2024-03-06T20:06:09;5.30;99.90
9668;DHT22;4872;48.316;10.650;2024-03-06T20:08:38;5.20;99.90
9668;DHT22;4872;48.316;10.650;2024-03-06T20:11:05;5.10;99.90
9668;DHT22;4872;48.316;10.650;2024-03-06T20:13:32;5.10;99.90
9668;DHT22;4872;48.316;10.650;2024-03-06T20:15:59;5.10;99.90
9668;DHT22;4872;48.316;10.650;2024-03-06T20:18:26;5.00;99.90
9668;DHT22;4872;48.316;10.650;2024-03-06T20:20:52;5.00;99.90
9668;DHT22;4872;48.316;10.650;2024-03-06T20:23:20;4.90;99.90
9668;DHT22;4872;48.316;10.650;2024-03-06T20:25:48;4.90;99.90
9668;DHT22;4872;48.316;10.650;2024-03-06T20:28:15;4.80;99.90
9668;DHT22;4872;48.316;10.650;2024-03-06T20:30:42;5.00;99.90
9668;DHT22;4872;48.316;10.650;2024-03-06T20:33:11;4.80;99.90
9668;DHT22;4872;48.316;10.650;2024-03-06T20:35:37;4.90;99.90
9668;DHT22;4872;48.316;10.650;2024-03-06T20:38:05;4.90;99.90
9668;DHT22;4872;48.316;10.650;2024-03-06T20:40:35;5.00;99.90
9668;DHT22;4872;48.316;10.650;2024-03-06T20:43:07;5.10;99.90
9668;DHT22;4872;48.316;10.650;2024-03-06T20:45:34;5.10;99.90
9668;DHT22;4872;48.316;10.650;2024-03-06T20:48:05;5.00;99.90
9668;DHT22;4872;48.316;10.650;2024-03-06T20:50:32;5.00;99.90
9668;DHT22;4872;48.316;10.650;2024-03-06T20:52:59;5.00;99.90
9668;DHT22;4872;48.316;10.650;2024-03-06T20:55:26;5.10;99.90
9668;DHT22;4872;48.316;10.650;2024-03-06T20:57:54;5.00;99.90
9668;DHT22;4872;48.316;10.650;2024-03-06T21:00:23;5.00;99.90
9668;DHT22;4872;48.316;10.650;2024-03-06T21:02:49;5.10;99.90
9668;DHT22;4872;48.316;10.650;2024-03-06T21:05:15;4.80;99.90
9668;DHT22;4872;48.316;10.650;2024-03-06T21:07:42;4.80;99.90
9668;DHT22;4872;48.316;10.650;2024-03-06T21:10:09;5.00;99.90
9668;DHT22;4872;48.316;10.650;2024-03-06T21:12:40;4.80;99.90
9668;DHT22;4872;48.316;10.650;2024-03-06T21:15:08;4.90;99.90
9668;DHT22;4872;48.316;10.650;2024-03-06T21:17:39;4.90;99.90